Jonesboro Municipal Airport
KJBR : now visible

Airfield :











YOU CAN JOIN US ON...

 
LOGIN :

Register | Disclaimer

   EN    FR    IT 

 









Legend :    VFR   Marginal VFR   IFR   Intensive IFR   Very Intensive IFR
Visi :
Ceiling :
>= 8 km
>= 3000ft
5 to 8 km
1000 to 3000 ft
1500m to 5 km
500 to 1000 ft
800 to 1500m
200 to 500 ft
< 800m
< 200 ft
Symbols :   Thunderstorms  Fog  Heavy snow  Heavy precipitations  Wind > 20 kt






- Airport Elevation : 262 ft
- IATA code : JBR


KJBR - Jonesboro Municipal

CURRENT METAR :
  • 250753Z AUTO 28005KT 10SM OVC024 03/M01 A3010 RMK AO2 SLP195 T00331006 $

EXPIRED METARs :
  • 250653Z AUTO 30009KT 10SM OVC025 03/M01 A3009 RMK AO2 SLP191 T00331011 $
  • 250553Z AUTO 28010G16KT 10SM OVC025 03/M02 A3010 RMK AO2 SLP194 T00331017 10039 20033 400610033 51012 $

TAF KJBR
Valid from the 25 at 06:00 until the 26 at 06:00 UTC


250532Z 2506/2606 27007KT P6SM BKN025
FM251400 26007KT P6SM BKN060
FM251800 26008KT P6SM SCT025 BKN100



MET'MAP, your aeronautical weather chart ! - Copyright ORBIFLY December 2007 - Disclaimer

ORBIFLY MET'MAP TEAM :

Programming & Development : Alexandra Zaïnal
Concept & original design : Baudouin d'Aumeries
Assistance for programming : Marc-Olivier Méhu
Technical & hardware support : Manuel Goepfert

Contact : metmap@orbifly.com




SOURCES & CREDITS :

   NOAA       Earth
Advisory